createdAt,value
2019-06-26T00:00:05.171Z,99.99
2019-06-26T00:11:06.413Z,99.99
2019-06-26T00:22:06.391Z,99.99
2019-06-26T00:33:09.032Z,99.99
2019-06-26T00:44:08.885Z,99.99
2019-06-26T00:55:08.249Z,99.99
2019-06-26T01:06:01.538Z,99.99
2019-06-26T01:17:01.440Z,99.99
2019-06-26T01:28:02.602Z,99.99
2019-06-26T01:39:03.293Z,99.99
2019-06-26T01:50:04.027Z,99.99
2019-06-26T02:01:05.786Z,99.99
2019-06-26T02:12:06.187Z,99.99
2019-06-26T02:23:07.222Z,99.99
2019-06-26T02:34:09.124Z,99.99
2019-06-26T02:45:06.156Z,99.99
2019-06-26T02:56:06.100Z,99.99
2019-06-26T03:07:07.806Z,99.99
2019-06-26T03:18:08.307Z,99.99
2019-06-26T03:29:10.358Z,99.99
2019-06-26T03:40:12.376Z,99.99
2019-06-26T03:51:14.088Z,99.99
2019-06-26T04:02:17.868Z,99.99
2019-06-26T04:13:19.178Z,99.99
2019-06-26T04:24:09.582Z,99.99
2019-06-26T04:35:05.639Z,99.99
2019-06-26T04:45:58.086Z,99.99
2019-06-26T04:56:52.879Z,99.99
2019-06-26T05:07:49.173Z,99.99
2019-06-26T05:18:45.819Z,99.99
2019-06-26T05:29:42.060Z,99.99
2019-06-26T05:40:38.374Z,99.99
2019-06-26T05:51:35.659Z,99.99
2019-06-26T06:02:34.899Z,99.99
2019-06-26T06:13:29.704Z,99.99
2019-06-26T06:24:21.852Z,99.99
2019-06-26T06:35:08.009Z,99.99
2019-06-26T06:46:03.227Z,99.99
2019-06-26T06:57:01.587Z,99.99
2019-06-26T07:07:53.950Z,99.99
2019-06-26T07:18:35.041Z,99.99
2019-06-26T07:29:17.508Z,99.99
2019-06-26T07:40:01.468Z,99.99
2019-06-26T07:51:01.106Z,99.99
2019-06-26T08:01:58.291Z,99.99
2019-06-26T08:12:58.468Z,99.99
2019-06-26T08:23:59.483Z,99.99
2019-06-26T08:35:02.093Z,99.99
2019-06-26T08:46:02.674Z,99.99
2019-06-26T08:57:03.244Z,99.99
2019-06-26T09:08:03.412Z,99.99
2019-06-26T09:19:01.946Z,99.99
2019-06-26T09:30:03.375Z,99.99
2019-06-26T09:41:05.280Z,99.99
2019-06-26T09:52:05.635Z,99.99
2019-06-26T10:03:06.249Z,99.99
2019-06-26T10:14:06.677Z,99.99
2019-06-26T10:25:05.571Z,99.99
2019-06-26T10:36:09.321Z,99.99
2019-06-26T10:47:07.816Z,99.99
2019-06-26T10:58:10.534Z,99.99
2019-06-26T11:09:14.572Z,97.36
2019-06-26T11:20:14.793Z,94.14
2019-06-26T11:31:16.704Z,92.10
2019-06-26T11:42:17.349Z,91.01
2019-06-26T11:53:17.813Z,84.57
2019-06-26T12:04:19.290Z,79.87
2019-06-26T12:15:19.237Z,80.28
2019-06-26T12:26:20.108Z,83.74
2019-06-26T12:37:36.594Z,80.54
2019-06-26T12:48:27.702Z,80.05
2019-06-26T12:59:29.079Z,80.26
2019-06-26T13:10:29.804Z,80.12
2019-06-26T13:21:27.380Z,78.81
2019-06-26T13:32:21.938Z,79.60
2019-06-26T13:43:22.183Z,77.83
2019-06-26T13:54:17.943Z,80.20
2019-06-26T14:05:18.470Z,76.76
2019-06-26T14:16:15.325Z,80.68
2019-06-26T14:27:11.211Z,80.54
2019-06-26T14:38:10.645Z,81.51
2019-06-26T14:49:05.360Z,79.17
2019-06-26T15:00:07.214Z,83.13
2019-06-26T15:11:05.082Z,85.93
2019-06-26T15:22:01.953Z,88.62
2019-06-26T15:33:01.205Z,89.00
2019-06-26T15:44:01.689Z,90.45
2019-06-26T15:55:00.912Z,92.54
2019-06-26T16:06:02.069Z,95.90
2019-06-26T16:16:59.782Z,96.72
2019-06-26T16:28:05.772Z,99.80
2019-06-26T16:39:05.025Z,99.99
2019-06-26T16:50:03.538Z,99.99
2019-06-26T17:01:04.778Z,99.99
2019-06-26T17:11:59.569Z,99.99
2019-06-26T17:23:05.482Z,99.99
2019-06-26T17:34:00.902Z,99.99
2019-06-26T17:45:00.048Z,99.99
2019-06-26T17:56:00.311Z,99.99
2019-06-26T18:06:45.662Z,99.99
2019-06-26T18:17:43.010Z,99.99
2019-06-26T18:28:44.184Z,99.99
2019-06-26T18:39:46.343Z,99.99
2019-06-26T18:50:38.380Z,99.99
2019-06-26T19:01:36.031Z,99.99
2019-06-26T19:12:29.699Z,99.99
2019-06-26T19:23:27.684Z,99.99
2019-06-26T19:34:27.927Z,99.99
2019-06-26T19:45:26.546Z,99.99
2019-06-26T19:56:22.992Z,99.99
2019-06-26T20:07:19.508Z,99.99
2019-06-26T20:18:12.735Z,99.99
2019-06-26T20:29:11.401Z,99.99
2019-06-26T20:40:08.256Z,99.99
2019-06-26T20:51:04.934Z,99.99
2019-06-26T21:02:01.669Z,99.99
2019-06-26T21:12:54.398Z,99.99
2019-06-26T21:23:53.008Z,99.99
2019-06-26T21:34:50.899Z,99.99
2019-06-26T21:45:44.909Z,99.99
2019-06-26T21:56:43.502Z,99.99
2019-06-26T22:07:42.293Z,99.99
2019-06-26T22:18:39.026Z,99.99
2019-06-26T22:29:33.059Z,99.99
2019-06-26T22:40:34.116Z,99.99
2019-06-26T22:51:33.134Z,99.99
2019-06-26T23:02:28.397Z,99.99
2019-06-26T23:13:27.197Z,99.99
2019-06-26T23:24:23.962Z,99.99
2019-06-26T23:35:25.348Z,99.99
2019-06-26T23:46:24.268Z,99.99
2019-06-26T23:57:23.748Z,99.99
